Watson, AL (35181)

3:30 AM CST on February 06, 2016 (GMT -0600)
Nucor Steel Birmingham | | Change Station
CLOSE
Current Station
Personal Weather Station
Location: Birmingham, AL
Elevation: 562 ft
Nearby Weather Stations

Elev 562 ft 33.55 °N, 86.81 °W | Updated 0 second ago

Clear
Clear
33.3 °F
Feels Like 33 °F
N
0.0
Wind Variable Wind from ENE
Gusts 0.0 mph

Today
High -- | Low -- °F
--% Chance of Precip.
Yesterday
High -- | Low -- °F
Precip. -- in
Pressure 30.37 in
Visibility 10.0 miles
Clouds Clear
Windchill 33 °F
Dew Point 27 °F
Humidity 78%
Rainfall 0.00 in
Snow Depth Not available.
6:40 AM 5:23 PM
Waning Crescent, 6% visible
METAR KBHM 060853Z 06003KT 10SM CLR 03/M07 A3037 RMK AO2 SLP284 T00281067 56012
Pressure 30.37 in
Visibility 10.0 miles
Clouds Clear
Windchill 33 °F
Dew Point 27 °F
Humidity 78%
Rainfall 0.00 in
Snow Depth Not available.
6:40 AM 5:23 PM
Waning Crescent, 6% visible
METAR KBHM 060853Z 06003KT 10SM CLR 03/M07 A3037 RMK AO2 SLP284 T00281067 56012

10-Day Weather Forecast

Almanac

Astronomy

Feb. 06, 2016 Rise Set
Actual Time
Civil Twilight
Nautical Twilight
Astronomical Twilight
Moon
Length of Visible Light
Length of Day
Tomorrow will be .
, % of the Moon is Illuminated

Today's Extremes

State Highs State Lows

Community

WunderPhotos

Upload Photos

1,890,933 photos uploaded!

WunderBlog® & News

Nearby

Air Quality

  Air Quality AQ Index Pollutant
Not available.

Snow Depth

Station Depth Elevation

Earthquake Activity

City Distance Mag. Time & Date
Minimum magnitude displayed is 2.5.

Coastal Water Temperatures

Place Temperature

Stations

Nearby Weather Stations

Station Location Temp. Windchill Dew Point Humidity Wind Precip. Elev Updated Type
                   

Watches & Warnings

There are currently no watches in effect.